Rodanthe, NC (27968)

2:19 PM EST on February 09, 2016 (GMT -0500)
Wimble Shores | | Change Station
CLOSE
Current Station
Personal Weather Station
Location: Waves, NC
Elevation: 41 ft
Nearby Weather Stations
Active Advisory: Coastal Flood Advisory

Elev 41 ft 35.57 °N, 75.47 °W | Updated 3 seconds ago

Mostly Cloudy
Mostly Cloudy
47.0 °F
Feels Like 41 °F
N
15.0
Wind Variable Wind from WSW
Gusts 19.0 mph

Today
High -- | Low -- °F
--% Chance of Precip.
Yesterday
High -- | Low -- °F
Precip. -- in
Pressure 29.59 in
Visibility 10.0 miles
Clouds Mostly Cloudy 4200 ft
Mostly Cloudy 6000 ft
Windchill 41 °F
Dew Point 41 °F
Humidity 80%
Rainfall 0.00 in
Snow Depth Not available.
6:55 AM 5:37 PM
New Moon, 2% visible
METAR K2DP 091856Z AUTO 29013G19KT 10SM BKN042 BKN060 08/00 A2959 RMK AO2 LTG DSNT SE SLPNO T00790003 $
Pressure 29.59 in
Visibility 10.0 miles
Clouds Mostly Cloudy 4200 ft
Mostly Cloudy 6000 ft
Windchill 41 °F
Dew Point 41 °F
Humidity 80%
Rainfall 0.00 in
Snow Depth Not available.
6:55 AM 5:37 PM
New Moon, 2% visible
METAR K2DP 091856Z AUTO 29013G19KT 10SM BKN042 BKN060 08/00 A2959 RMK AO2 LTG DSNT SE SLPNO T00790003 $

10-Day Weather Forecast

Almanac

Astronomy

Feb. 09, 2016 Rise Set
Actual Time
Civil Twilight
Nautical Twilight
Astronomical Twilight
Moon
Length of Visible Light
Length of Day
Tomorrow will be .
, % of the Moon is Illuminated

Today's Extremes

State Highs State Lows

Community

WunderPhotos

Upload Photos

1,891,666 photos uploaded!

WunderBlog® & News

Nearby

Air Quality

  Air Quality AQ Index Pollutant
Not available.

Snow Depth

Station Depth Elevation

Earthquake Activity

City Distance Mag. Time & Date
Minimum magnitude displayed is 2.5.

Coastal Water Temperatures

Place Temperature

Stations

Nearby Weather Stations

Station Location Temp. Windchill Dew Point Humidity Wind Precip. Elev Updated Type
                   

Watches & Warnings

Coastal Flood Advisory
Issued: 1:04 PM EST Feb. 9, 2016 – National Weather Service

... Coastal Flood Advisory in effect until noon EST Wednesday...

The National Weather Service in Newport/Morehead City has issued
a coastal Flood Advisory... which is in effect until noon EST
Wednesday.

* Location... the usual vulnerable areas along the ocean side of
Hatteras Island where ocean overwash and erosion from large
swells is expected.

* Coastal flooding... ocean overwash is the main concern around the
time of high tide later this evening and again late morning on
Wednesday. Water could briefly cover portions of Highway 12 in
the usual areas susceptible to ocean overwash from large swells.

* Timing... around high tide at 8 PM tonight and again around 9 am
on Wednesday.

* Impacts... minor ocean overwash and minor beach erosion.

Precautionary/preparedness actions...

A coastal Flood Advisory indicates that onshore winds and tides
will combine to generate flooding of low areas along the shore.